createdAt,value
2022-12-05T00:01:11.467Z,2.08
2022-12-05T00:03:37.918Z,2.03
2022-12-05T00:06:05.153Z,2.01
2022-12-05T00:08:31.594Z,1.93
2022-12-05T00:10:57.967Z,1.88
2022-12-05T00:13:24.352Z,1.68
2022-12-05T00:15:50.799Z,1.59
2022-12-05T00:18:17.243Z,1.69
2022-12-05T00:20:47.894Z,1.80
2022-12-05T00:23:14.739Z,1.78
2022-12-05T00:25:42.229Z,1.82
2022-12-05T00:28:08.704Z,1.81
2022-12-05T00:30:35.281Z,1.74
2022-12-05T00:33:01.708Z,1.72
2022-12-05T00:35:28.110Z,1.78
2022-12-05T00:37:54.687Z,1.76
2022-12-05T00:40:21.094Z,1.63
2022-12-05T00:42:52.104Z,1.60
2022-12-05T00:45:18.990Z,1.68
2022-12-05T00:47:45.423Z,1.55
2022-12-05T00:50:11.993Z,1.43
2022-12-05T00:52:38.436Z,1.52
2022-12-05T00:55:05.244Z,1.65
2022-12-05T00:57:32.264Z,1.66
2022-12-05T00:59:58.983Z,1.65
2022-12-05T01:02:25.716Z,1.68
2022-12-05T01:04:52.149Z,1.71
2022-12-05T01:07:18.549Z,1.66
2022-12-05T01:09:44.941Z,1.73
2022-12-05T01:12:11.377Z,1.71
2022-12-05T01:14:37.834Z,1.64
2022-12-05T01:17:04.454Z,1.55
2022-12-05T01:19:32.487Z,1.55
2022-12-05T01:21:59.997Z,1.67
2022-12-05T01:24:28.259Z,1.65
2022-12-05T01:26:55.397Z,1.64
2022-12-05T01:29:23.439Z,1.61
2022-12-05T01:31:50.103Z,1.61
2022-12-05T01:34:18.188Z,1.61
2022-12-05T01:36:44.921Z,1.63
2022-12-05T01:39:12.363Z,1.64
2022-12-05T01:41:42.210Z,1.65
2022-12-05T01:44:28.606Z,1.67
2022-12-05T01:46:56.943Z,1.56
2022-12-05T01:49:39.693Z,1.58
2022-12-05T01:52:10.950Z,1.64
2022-12-05T01:54:38.443Z,1.62
2022-12-05T01:57:08.612Z,1.50
2022-12-05T01:59:44.399Z,1.45
2022-12-05T02:02:12.269Z,1.49
2022-12-05T02:04:50.313Z,1.50
2022-12-05T02:07:18.146Z,1.51
2022-12-05T02:09:45.686Z,1.54
2022-12-05T02:12:12.175Z,1.57
2022-12-05T02:14:52.743Z,1.53
2022-12-05T02:18:04.430Z,1.47
2022-12-05T02:20:36.915Z,1.52
2022-12-05T02:23:15.334Z,1.60
2022-12-05T02:25:50.026Z,1.53
2022-12-05T02:28:25.329Z,1.50
2022-12-05T02:31:01.181Z,1.59
2022-12-05T02:33:44.611Z,1.58
2022-12-05T02:36:27.788Z,1.53
2022-12-05T02:39:04.846Z,1.51
2022-12-05T02:41:49.980Z,1.52
2022-12-05T02:44:29.288Z,1.61
2022-12-05T02:46:57.466Z,1.51
2022-12-05T02:49:30.006Z,1.41
2022-12-05T02:51:59.760Z,1.52
2022-12-05T02:54:31.393Z,1.58
2022-12-05T02:57:00.341Z,1.57
2022-12-05T02:59:26.817Z,1.56
2022-12-05T03:01:53.392Z,1.56
2022-12-05T03:04:22.822Z,1.67
2022-12-05T03:06:54.827Z,1.68
2022-12-05T03:09:26.789Z,1.68
2022-12-05T03:12:05.273Z,1.66
2022-12-05T03:14:39.061Z,1.64
2022-12-05T03:17:11.826Z,1.64
2022-12-05T03:19:52.730Z,1.59
2022-12-05T03:22:27.640Z,1.58
2022-12-05T03:24:54.794Z,1.68
2022-12-05T03:27:21.171Z,1.60
2022-12-05T03:29:55.616Z,1.58
2022-12-05T03:33:06.591Z,1.55
2022-12-05T03:35:39.031Z,1.54
2022-12-05T03:38:13.633Z,1.55
2022-12-05T03:41:09.395Z,1.60
2022-12-05T03:43:52.822Z,1.61
2022-12-05T03:46:29.708Z,1.59
2022-12-05T03:49:33.522Z,1.58
2022-12-05T03:52:17.688Z,1.60
2022-12-05T03:54:49.413Z,1.39
2022-12-05T03:57:34.382Z,1.34
2022-12-05T04:00:09.993Z,1.27
2022-12-05T04:03:10.604Z,1.39
2022-12-05T04:05:47.223Z,1.56
2022-12-05T04:08:21.135Z,1.44
2022-12-05T04:10:51.338Z,1.57
2022-12-05T04:13:25.360Z,1.61
2022-12-05T04:16:17.940Z,1.66
2022-12-05T04:18:55.939Z,1.68
2022-12-05T04:21:38.338Z,1.66
2022-12-05T04:24:32.498Z,1.77
2022-12-05T04:27:22.871Z,1.79
2022-12-05T04:30:20.951Z,1.73
2022-12-05T04:33:15.284Z,1.74
2022-12-05T04:35:52.657Z,1.69
2022-12-05T04:38:30.686Z,1.71
2022-12-05T04:41:05.189Z,1.73
2022-12-05T04:43:35.480Z,1.75
2022-12-05T04:46:05.269Z,1.74
2022-12-05T04:48:35.239Z,1.80
2022-12-05T04:51:03.310Z,1.85
2022-12-05T04:53:31.456Z,1.87
2022-12-05T04:56:01.849Z,1.84
2022-12-05T04:58:30.202Z,1.89
2022-12-05T05:01:10.105Z,1.91
2022-12-05T05:03:56.660Z,1.89
2022-12-05T05:06:23.034Z,1.81
2022-12-05T05:08:52.224Z,1.77
2022-12-05T05:11:22.749Z,1.73
2022-12-05T05:13:49.297Z,1.74
2022-12-05T05:16:18.443Z,1.77
2022-12-05T05:18:48.687Z,1.91
2022-12-05T05:21:24.703Z,1.90
2022-12-05T05:23:51.490Z,1.84
2022-12-05T05:26:18.619Z,1.80
2022-12-05T05:28:45.802Z,1.75
2022-12-05T05:31:12.794Z,1.61
2022-12-05T05:33:39.437Z,1.63
2022-12-05T05:36:08.276Z,1.54
2022-12-05T05:38:39.629Z,1.46
2022-12-05T05:41:11.450Z,1.54
2022-12-05T05:43:39.396Z,1.49
2022-12-05T05:46:06.158Z,1.56
2022-12-05T05:48:32.688Z,1.58
2022-12-05T05:51:00.280Z,1.68
2022-12-05T05:53:26.766Z,1.60
2022-12-05T05:55:53.334Z,1.61
2022-12-05T05:58:19.707Z,1.71
2022-12-05T06:00:46.203Z,1.76
2022-12-05T06:03:12.822Z,1.79
2022-12-05T06:05:39.325Z,1.88
2022-12-05T06:08:06.016Z,1.87
2022-12-05T06:10:32.525Z,1.86
2022-12-05T06:13:00.446Z,1.96
2022-12-05T06:15:26.910Z,1.97
2022-12-05T06:17:53.356Z,1.96
2022-12-05T06:20:19.785Z,1.93
2022-12-05T06:22:46.155Z,1.94
2022-12-05T06:25:12.567Z,1.99
2022-12-05T06:27:39.132Z,2.04
2022-12-05T06:30:06.293Z,2.08
2022-12-05T06:32:32.821Z,2.06
2022-12-05T06:34:59.319Z,2.02
2022-12-05T06:37:25.728Z,2.08
2022-12-05T06:39:53.129Z,2.12
2022-12-05T06:42:19.533Z,2.17
2022-12-05T06:44:46.132Z,2.18
2022-12-05T06:47:12.589Z,2.17
2022-12-05T06:49:38.980Z,2.11
2022-12-05T06:52:05.507Z,1.96
2022-12-05T06:54:32.001Z,1.91
2022-12-05T06:56:58.443Z,1.91
2022-12-05T06:59:24.887Z,1.81
2022-12-05T07:01:51.453Z,1.82
2022-12-05T07:04:21.484Z,1.87
2022-12-05T07:06:51.447Z,1.91
2022-12-05T07:09:44.514Z,1.77
2022-12-05T07:12:15.237Z,1.43
2022-12-05T07:14:50.383Z,1.60
2022-12-05T07:17:18.833Z,1.55
2022-12-05T07:19:48.348Z,1.47
2022-12-05T07:22:16.166Z,1.43
2022-12-05T07:24:43.569Z,1.47
2022-12-05T07:27:10.157Z,1.45
2022-12-05T07:29:36.683Z,1.52
2022-12-05T07:32:03.707Z,1.67
2022-12-05T07:34:30.432Z,1.84
2022-12-05T07:36:56.985Z,1.91
2022-12-05T07:39:23.438Z,2.03
2022-12-05T07:41:50.020Z,1.98
2022-12-05T07:44:17.047Z,2.09
2022-12-05T07:46:43.498Z,2.15
2022-12-05T07:49:10.133Z,2.22
2022-12-05T07:51:36.594Z,2.29
2022-12-05T07:54:03.468Z,2.28
2022-12-05T07:56:29.969Z,2.39
2022-12-05T07:58:56.499Z,2.46
2022-12-05T08:01:28.435Z,2.40
2022-12-05T08:03:57.711Z,2.38
2022-12-05T08:06:29.188Z,2.43
2022-12-05T08:08:56.683Z,2.49
2022-12-05T08:11:26.582Z,2.54
2022-12-05T08:13:54.264Z,2.55
2022-12-05T08:16:24.257Z,2.48
2022-12-05T08:18:57.858Z,2.32
2022-12-05T08:21:25.296Z,2.46
2022-12-05T08:23:52.671Z,2.60
2022-12-05T08:26:30.989Z,2.55
2022-12-05T08:29:03.513Z,2.55
2022-12-05T08:31:32.484Z,2.96
2022-12-05T08:34:00.175Z,3.28
2022-12-05T08:36:28.786Z,3.58
2022-12-05T08:39:00.416Z,3.75
2022-12-05T08:41:29.875Z,3.81
2022-12-05T08:43:59.057Z,3.44
2022-12-05T08:46:26.041Z,3.39
2022-12-05T08:48:52.654Z,3.69
2022-12-05T08:51:19.078Z,3.61
2022-12-05T08:53:45.628Z,3.60
2022-12-05T08:56:12.592Z,3.58
2022-12-05T08:58:40.197Z,3.21
2022-12-05T09:01:10.307Z,2.93
2022-12-05T09:03:36.866Z,2.75
2022-12-05T09:06:17.048Z,2.66
2022-12-05T09:08:46.747Z,3.06
2022-12-05T09:11:23.893Z,3.32
2022-12-05T09:13:51.943Z,3.49
2022-12-05T09:16:24.944Z,3.60
2022-12-05T09:18:52.633Z,3.35
2022-12-05T09:21:22.236Z,3.52
2022-12-05T09:23:49.262Z,3.61
2022-12-05T09:26:17.998Z,3.58
2022-12-05T09:28:44.556Z,3.76
2022-12-05T09:31:17.639Z,3.87
2022-12-05T09:33:44.891Z,3.83
2022-12-05T09:36:25.383Z,3.43
2022-12-05T09:38:53.298Z,2.82
2022-12-05T09:42:05.302Z,2.82
2022-12-05T09:44:50.191Z,2.78
2022-12-05T09:47:50.464Z,2.74
2022-12-05T09:50:29.395Z,2.82
2022-12-05T09:53:18.549Z,3.27
2022-12-05T09:55:49.593Z,3.57
2022-12-05T09:58:25.516Z,3.60
2022-12-05T10:00:59.196Z,3.60
2022-12-05T10:03:34.716Z,3.89
2022-12-05T10:06:13.281Z,3.98
2022-12-05T10:08:46.669Z,3.70
2022-12-05T10:11:35.117Z,3.80
2022-12-05T10:14:21.681Z,3.98
2022-12-05T10:16:55.360Z,4.10
2022-12-05T10:19:30.354Z,4.18
2022-12-05T10:22:20.689Z,3.95
2022-12-05T10:24:54.537Z,3.72
2022-12-05T10:27:35.395Z,3.60
2022-12-05T10:30:17.164Z,3.91
2022-12-05T10:32:54.418Z,4.13
2022-12-05T10:35:32.874Z,4.18
2022-12-05T10:38:04.079Z,4.36
2022-12-05T10:40:40.621Z,4.01
2022-12-05T10:43:10.169Z,3.68
2022-12-05T10:45:43.972Z,3.92
2022-12-05T10:48:16.268Z,4.03
2022-12-05T10:50:44.410Z,4.34
2022-12-05T10:53:17.296Z,4.40
2022-12-05T10:56:06.447Z,4.38
2022-12-05T10:58:33.457Z,4.41
2022-12-05T11:01:13.931Z,4.71
2022-12-05T11:03:42.555Z,4.70
2022-12-05T11:06:24.877Z,4.57
2022-12-05T11:09:09.508Z,4.09
2022-12-05T11:11:36.286Z,4.02
2022-12-05T11:14:24.521Z,4.24
2022-12-05T11:16:56.821Z,4.52
2022-12-05T11:19:28.226Z,4.71
2022-12-05T11:21:55.279Z,4.99
2022-12-05T11:24:32.355Z,5.01
2022-12-05T11:27:01.384Z,4.94
2022-12-05T11:29:30.133Z,4.73
2022-12-05T11:31:56.584Z,4.55
2022-12-05T11:34:28.005Z,4.67
2022-12-05T11:37:04.873Z,3.93
2022-12-05T11:39:32.570Z,3.78
2022-12-05T11:42:14.499Z,4.10
2022-12-05T11:45:02.292Z,3.59
2022-12-05T11:48:06.944Z,3.51
2022-12-05T11:51:03.340Z,3.47
2022-12-05T11:53:48.753Z,3.94
2022-12-05T11:56:38.385Z,4.22
2022-12-05T11:59:35.594Z,4.11
2022-12-05T12:02:13.821Z,4.53
2022-12-05T12:04:59.103Z,4.59
2022-12-05T12:07:51.334Z,4.54
2022-12-05T12:10:29.324Z,4.48
2022-12-05T12:13:16.614Z,4.16
2022-12-05T12:16:15.640Z,4.04
2022-12-05T12:19:03.068Z,4.18
2022-12-05T12:21:51.061Z,3.91
2022-12-05T12:24:26.731Z,3.64
2022-12-05T12:26:57.286Z,3.70
2022-12-05T12:29:54.399Z,3.77
2022-12-05T12:32:39.701Z,4.07
2022-12-05T12:35:24.955Z,4.30
2022-12-05T12:38:17.376Z,4.29
2022-12-05T12:41:14.147Z,3.84
2022-12-05T12:43:55.809Z,3.41
2022-12-05T12:46:49.007Z,3.36
2022-12-05T12:49:34.201Z,3.37
2022-12-05T12:52:12.386Z,3.86
2022-12-05T12:55:05.036Z,3.72
2022-12-05T12:57:34.604Z,3.87
2022-12-05T13:00:20.348Z,3.60
2022-12-05T13:03:17.119Z,3.72
2022-12-05T13:05:48.664Z,3.79
2022-12-05T13:08:27.531Z,3.68
2022-12-05T13:10:55.727Z,3.26
2022-12-05T13:13:36.487Z,3.19
2022-12-05T13:16:07.826Z,3.49
2022-12-05T13:18:35.506Z,3.70
2022-12-05T13:21:09.994Z,3.97
2022-12-05T13:23:43.682Z,4.21
2022-12-05T13:26:12.596Z,4.28
2022-12-05T13:28:42.256Z,3.96
2022-12-05T13:31:11.373Z,3.57
2022-12-05T13:33:49.254Z,3.63
2022-12-05T13:36:39.565Z,3.64
2022-12-05T13:39:37.030Z,3.56
2022-12-05T13:42:15.996Z,3.26
2022-12-05T13:44:44.751Z,3.31
2022-12-05T13:47:28.807Z,3.46
2022-12-05T13:50:10.068Z,3.34
2022-12-05T13:52:49.373Z,3.34
2022-12-05T13:55:32.282Z,3.21
2022-12-05T13:58:20.940Z,3.32
2022-12-05T14:00:47.806Z,3.33
2022-12-05T14:03:32.751Z,3.15
2022-12-05T14:05:59.358Z,3.19
2022-12-05T14:08:31.836Z,3.56
2022-12-05T14:10:58.169Z,3.70
2022-12-05T14:13:25.408Z,3.61
2022-12-05T14:15:54.593Z,3.80
2022-12-05T14:18:48.663Z,3.78
2022-12-05T14:21:27.964Z,3.60
2022-12-05T14:24:05.884Z,3.34
2022-12-05T14:26:32.682Z,3.18
2022-12-05T14:29:06.103Z,3.47
2022-12-05T14:31:49.289Z,3.22
2022-12-05T14:34:30.948Z,3.10
2022-12-05T14:37:03.364Z,2.83
2022-12-05T14:39:39.098Z,2.81
2022-12-05T14:42:29.391Z,2.87
2022-12-05T14:44:58.548Z,2.88
2022-12-05T14:47:34.168Z,2.95
2022-12-05T14:50:38.780Z,2.86
2022-12-05T14:53:20.589Z,2.78
2022-12-05T14:55:50.933Z,2.81
2022-12-05T14:58:22.026Z,3.09
2022-12-05T15:00:58.444Z,3.29
2022-12-05T15:03:39.957Z,3.42
2022-12-05T15:06:16.038Z,3.53
2022-12-05T15:08:49.080Z,3.51
2022-12-05T15:11:31.170Z,3.62
2022-12-05T15:14:12.484Z,3.65
2022-12-05T15:16:43.648Z,3.30
2022-12-05T15:19:17.763Z,3.12
2022-12-05T15:21:51.668Z,3.25
2022-12-05T15:24:20.020Z,3.40
2022-12-05T15:26:50.225Z,3.56
2022-12-05T15:29:25.506Z,3.59
2022-12-05T15:32:02.532Z,3.58
2022-12-05T15:34:38.297Z,3.48
2022-12-05T15:37:10.647Z,3.46
2022-12-05T15:39:50.388Z,3.53
2022-12-05T15:42:16.947Z,3.63
2022-12-05T15:44:43.369Z,3.35
2022-12-05T15:47:21.037Z,3.46
2022-12-05T15:49:47.676Z,3.31
2022-12-05T15:52:25.700Z,3.48
2022-12-05T15:54:54.268Z,3.54
2022-12-05T15:57:28.414Z,3.56
2022-12-05T16:00:03.246Z,3.57
2022-12-05T16:02:41.794Z,3.67
2022-12-05T16:05:21.904Z,3.71
2022-12-05T16:07:49.947Z,3.70
2022-12-05T16:10:23.440Z,3.76
2022-12-05T16:12:53.196Z,3.82
2022-12-05T16:15:26.746Z,3.84
2022-12-05T16:17:56.458Z,3.84
2022-12-05T16:20:32.179Z,3.83
2022-12-05T16:23:02.392Z,3.73
2022-12-05T16:25:35.260Z,3.61
2022-12-05T16:28:04.028Z,3.61
2022-12-05T16:30:31.305Z,3.63
2022-12-05T16:33:04.499Z,3.67
2022-12-05T16:35:37.235Z,3.67
2022-12-05T16:38:12.978Z,3.68
2022-12-05T16:40:50.569Z,3.65
2022-12-05T16:43:27.594Z,3.65
2022-12-05T16:45:57.063Z,3.65
2022-12-05T16:48:31.704Z,3.64
2022-12-05T16:51:22.198Z,3.65
2022-12-05T16:53:51.291Z,3.63
2022-12-05T16:56:27.858Z,3.64
2022-12-05T16:58:54.386Z,3.59
2022-12-05T17:01:25.809Z,3.66
2022-12-05T17:03:53.986Z,3.66
2022-12-05T17:06:23.232Z,3.64
2022-12-05T17:08:51.510Z,3.64
2022-12-05T17:11:22.926Z,3.70
2022-12-05T17:13:50.377Z,3.70
2022-12-05T17:16:18.331Z,3.69
2022-12-05T17:18:45.435Z,3.73
2022-12-05T17:21:17.315Z,3.77
2022-12-05T17:23:47.833Z,3.79
2022-12-05T17:26:17.514Z,3.78
2022-12-05T17:28:44.212Z,3.77
2022-12-05T17:31:16.748Z,3.69
2022-12-05T17:33:44.088Z,3.65
2022-12-05T17:36:10.807Z,3.68
2022-12-05T17:38:45.954Z,3.73
2022-12-05T17:41:23.677Z,3.72
2022-12-05T17:43:51.301Z,3.73
2022-12-05T17:46:21.440Z,3.76
2022-12-05T17:48:48.872Z,3.75
2022-12-05T17:51:15.584Z,3.69
2022-12-05T17:53:44.387Z,3.65
2022-12-05T17:56:11.471Z,3.69
2022-12-05T17:58:37.968Z,3.70
2022-12-05T18:01:04.696Z,3.73
2022-12-05T18:03:31.592Z,3.79
2022-12-05T18:05:58.541Z,3.87
2022-12-05T18:08:25.204Z,3.95
2022-12-05T18:10:52.114Z,4.01
2022-12-05T18:13:19.141Z,3.93
2022-12-05T18:15:48.190Z,3.82
2022-12-05T18:18:17.842Z,3.86
2022-12-05T18:20:45.067Z,3.80
2022-12-05T18:23:11.675Z,3.69
2022-12-05T18:25:38.726Z,3.68
2022-12-05T18:28:05.334Z,3.69
2022-12-05T18:30:31.910Z,3.70
2022-12-05T18:32:58.460Z,3.75
2022-12-05T18:35:40.546Z,3.76
2022-12-05T18:38:08.753Z,3.79
2022-12-05T18:40:35.445Z,3.78
2022-12-05T18:43:02.007Z,3.82
2022-12-05T18:45:28.511Z,3.82
2022-12-05T18:48:04.529Z,3.85
2022-12-05T18:50:36.640Z,3.91
2022-12-05T18:53:03.584Z,3.89
2022-12-05T18:55:58.003Z,3.89
2022-12-05T18:58:16.535Z,3.92
2022-12-05T19:00:43.068Z,3.89
2022-12-05T19:03:09.624Z,3.86
2022-12-05T19:05:36.385Z,3.88
2022-12-05T19:08:02.901Z,3.86
2022-12-05T19:10:29.453Z,3.87
2022-12-05T19:12:57.039Z,3.88
2022-12-05T19:15:23.877Z,3.85
2022-12-05T19:17:50.414Z,3.87
2022-12-05T19:20:16.839Z,3.93
2022-12-05T19:22:43.282Z,3.96
2022-12-05T19:25:09.733Z,3.92
2022-12-05T19:27:36.202Z,3.94
2022-12-05T19:30:07.942Z,3.94
2022-12-05T19:32:40.029Z,3.97
2022-12-05T19:35:07.544Z,4.10
2022-12-05T19:37:34.319Z,4.17
2022-12-05T19:40:01.092Z,4.20
2022-12-05T19:42:29.305Z,4.22
2022-12-05T19:44:55.760Z,4.21
2022-12-05T19:47:22.498Z,4.26
2022-12-05T19:49:49.119Z,4.29
2022-12-05T19:52:17.799Z,4.28
2022-12-05T19:54:45.134Z,4.27
2022-12-05T19:57:11.955Z,4.28
2022-12-05T19:59:38.561Z,4.30
2022-12-05T20:02:05.090Z,4.30
2022-12-05T20:04:31.862Z,4.25
2022-12-05T20:06:58.354Z,4.06
2022-12-05T20:09:25.016Z,4.15
2022-12-05T20:11:55.001Z,4.16
2022-12-05T20:14:24.402Z,4.13
2022-12-05T20:16:51.918Z,4.18
2022-12-05T20:19:18.545Z,4.26
2022-12-05T20:21:45.009Z,4.22
2022-12-05T20:24:12.317Z,4.30
2022-12-05T20:26:41.288Z,4.30
2022-12-05T20:29:08.082Z,4.29
2022-12-05T20:31:36.623Z,4.29
2022-12-05T20:34:04.424Z,4.26
2022-12-05T20:36:32.658Z,4.14
2022-12-05T20:39:02.194Z,4.15
2022-12-05T20:41:29.556Z,4.21
2022-12-05T20:44:02.002Z,4.12
2022-12-05T20:46:29.252Z,3.94
2022-12-05T20:48:58.876Z,4.07
2022-12-05T20:51:28.144Z,3.86
2022-12-05T20:53:54.919Z,3.96
2022-12-05T20:56:28.213Z,3.84
2022-12-05T20:58:57.740Z,3.83
2022-12-05T21:01:26.281Z,3.98
2022-12-05T21:03:53.883Z,4.03
2022-12-05T21:06:24.664Z,4.04
2022-12-05T21:08:51.904Z,4.08
2022-12-05T21:11:18.561Z,4.11
2022-12-05T21:13:45.551Z,3.89
2022-12-05T21:16:16.254Z,3.96
2022-12-05T21:18:45.494Z,4.02
2022-12-05T21:21:14.909Z,4.13
2022-12-05T21:23:46.628Z,4.13
2022-12-05T21:26:17.484Z,4.13
2022-12-05T21:28:45.468Z,4.18
2022-12-05T21:31:17.429Z,4.26
2022-12-05T21:33:48.849Z,4.13
2022-12-05T21:36:15.891Z,3.73
2022-12-05T21:38:42.529Z,3.60
2022-12-05T21:41:12.244Z,3.84
2022-12-05T21:43:38.800Z,3.90
2022-12-05T21:46:06.085Z,3.93
2022-12-05T21:48:34.028Z,3.63
2022-12-05T21:51:01.595Z,3.77
2022-12-05T21:53:28.279Z,3.87
2022-12-05T21:56:02.482Z,3.76
2022-12-05T21:58:29.368Z,3.79
2022-12-05T22:00:56.392Z,3.53
2022-12-05T22:03:23.393Z,3.71
2022-12-05T22:05:49.895Z,3.70
2022-12-05T22:08:16.639Z,3.64
2022-12-05T22:10:43.187Z,3.54
2022-12-05T22:13:09.561Z,3.55
2022-12-05T22:15:36.209Z,3.60
2022-12-05T22:18:02.652Z,3.54
2022-12-05T22:20:29.163Z,3.66
2022-12-05T22:22:55.551Z,3.57
2022-12-05T22:25:22.083Z,3.63
2022-12-05T22:27:48.571Z,3.59
2022-12-05T22:30:15.083Z,3.61
2022-12-05T22:32:41.510Z,3.63
2022-12-05T22:35:07.999Z,3.60
2022-12-05T22:37:34.370Z,3.56
2022-12-05T22:40:01.008Z,3.58
2022-12-05T22:42:27.735Z,3.49
2022-12-05T22:44:54.276Z,3.32
2022-12-05T22:47:20.739Z,3.34
2022-12-05T22:49:47.192Z,3.36
2022-12-05T22:52:13.624Z,3.46
2022-12-05T22:54:40.252Z,3.30
2022-12-05T22:57:06.694Z,3.20
2022-12-05T22:59:33.167Z,3.18
2022-12-05T23:01:59.624Z,3.28
2022-12-05T23:04:26.351Z,3.33
2022-12-05T23:06:52.747Z,3.26
2022-12-05T23:09:20.491Z,3.29
2022-12-05T23:11:49.359Z,3.29
2022-12-05T23:14:18.815Z,3.33
2022-12-05T23:16:45.228Z,3.33
2022-12-05T23:19:11.716Z,3.38
2022-12-05T23:21:40.056Z,3.26
2022-12-05T23:24:09.787Z,3.36
2022-12-05T23:26:40.317Z,3.53
2022-12-05T23:29:07.464Z,3.45
2022-12-05T23:31:34.217Z,3.44
2022-12-05T23:34:03.541Z,3.45
2022-12-05T23:36:32.277Z,3.42
2022-12-05T23:39:00.232Z,3.21
2022-12-05T23:41:27.431Z,3.15
2022-12-05T23:43:54.240Z,3.12
2022-12-05T23:46:23.153Z,3.11
2022-12-05T23:48:50.395Z,3.11
2022-12-05T23:51:22.021Z,3.06
2022-12-05T23:53:53.811Z,2.99
2022-12-05T23:56:23.281Z,3.02
2022-12-05T23:58:49.805Z,3.05
